sensor_id;sensor_type;location;lat;lon;timestamp;pressure;altitude;pressure_sealevel;temperature;humidity
56944;BME280;42848;42.524;12.052;2023-04-04T00:01:24;95842.94;;;5.95;100.00
56944;BME280;42848;42.524;12.052;2023-04-04T00:03:50;95833.38;;;5.89;100.00
56944;BME280;42848;42.524;12.052;2023-04-04T00:06:19;95836.19;;;5.84;100.00
56944;BME280;42848;42.524;12.052;2023-04-04T00:08:46;95846.38;;;5.87;100.00
56944;BME280;42848;42.524;12.052;2023-04-04T00:11:12;95838.28;;;5.87;100.00
56944;BME280;42848;42.524;12.052;2023-04-04T00:13:38;95843.81;;;5.82;100.00
56944;BME280;42848;42.524;12.052;2023-04-04T00:16:04;95833.50;;;5.84;100.00
56944;BME280;42848;42.524;12.052;2023-04-04T00:18:31;95836.50;;;5.83;100.00
56944;BME280;42848;42.524;12.052;2023-04-04T00:20:57;95833.03;;;5.82;100.00
56944;BME280;42848;42.524;12.052;2023-04-04T00:23:23;95836.00;;;5.72;100.00
56944;BME280;42848;42.524;12.052;2023-04-04T00:25:50;95846.97;;;5.84;100.00
56944;BME280;42848;42.524;12.052;2023-04-04T00:28:20;95829.59;;;5.90;100.00
56944;BME280;42848;42.524;12.052;2023-04-04T00:30:47;95831.91;;;5.83;100.00
56944;BME280;42848;42.524;12.052;2023-04-04T00:33:13;95842.53;;;5.80;100.00
56944;BME280;42848;42.524;12.052;2023-04-04T00:35:40;95846.28;;;5.70;100.00
56944;BME280;42848;42.524;12.052;2023-04-04T00:38:06;95841.44;;;5.81;100.00
56944;BME280;42848;42.524;12.052;2023-04-04T00:40:39;95856.44;;;5.73;100.00
56944;BME280;42848;42.524;12.052;2023-04-04T00:43:05;95858.16;;;5.69;100.00
56944;BME280;42848;42.524;12.052;2023-04-04T00:45:33;95852.31;;;5.76;100.00
56944;BME280;42848;42.524;12.052;2023-04-04T00:48:01;95860.84;;;5.69;100.00
56944;BME280;42848;42.524;12.052;2023-04-04T00:50:27;95863.41;;;5.74;100.00
56944;BME280;42848;42.524;12.052;2023-04-04T00:52:53;95855.00;;;5.67;100.00
56944;BME280;42848;42.524;12.052;2023-04-04T00:55:19;95849.72;;;5.62;100.00
56944;BME280;42848;42.524;12.052;2023-04-04T00:57:45;95842.13;;;5.64;100.00
56944;BME280;42848;42.524;12.052;2023-04-04T01:00:12;95846.19;;;5.53;100.00
56944;BME280;42848;42.524;12.052;2023-04-04T01:02:39;95843.03;;;5.51;100.00
56944;BME280;42848;42.524;12.052;2023-04-04T01:05:05;95847.78;;;5.54;100.00
56944;BME280;42848;42.524;12.052;2023-04-04T01:07:31;95837.03;;;5.54;100.00
56944;BME280;42848;42.524;12.052;2023-04-04T01:09:57;95841.25;;;5.46;100.00
56944;BME280;42848;42.524;12.052;2023-04-04T01:12:23;95842.03;;;5.47;100.00
56944;BME280;42848;42.524;12.052;2023-04-04T01:14:50;95843.63;;;5.48;100.00
56944;BME280;42848;42.524;12.052;2023-04-04T01:17:16;95846.03;;;5.49;100.00
56944;BME280;42848;42.524;12.052;2023-04-04T01:19:57;95834.97;;;5.51;100.00
56944;BME280;42848;42.524;12.052;2023-04-04T01:22:26;95839.19;;;5.43;100.00
56944;BME280;42848;42.524;12.052;2023-04-04T01:24:54;95832.38;;;5.46;100.00
56944;BME280;42848;42.524;12.052;2023-04-04T01:27:21;95835.44;;;5.53;100.00
56944;BME280;42848;42.524;12.052;2023-04-04T01:29:47;95824.50;;;5.49;100.00
56944;BME280;42848;42.524;12.052;2023-04-04T01:32:36;95822.56;;;5.41;100.00
56944;BME280;42848;42.524;12.052;2023-04-04T01:38:29;95844.09;;;5.41;100.00
56944;BME280;42848;42.524;12.052;2023-04-04T01:41:02;95838.81;;;5.36;100.00
56944;BME280;42848;42.524;12.052;2023-04-04T01:43:32;95844.50;;;5.34;100.00
56944;BME280;42848;42.524;12.052;2023-04-04T01:45:58;95828.50;;;5.29;100.00
56944;BME280;42848;42.524;12.052;2023-04-04T01:48:25;95824.72;;;5.30;100.00
56944;BME280;42848;42.524;12.052;2023-04-04T01:50:52;95841.34;;;5.32;100.00
56944;BME280;42848;42.524;12.052;2023-04-04T01:53:18;95833.38;;;5.27;100.00
56944;BME280;42848;42.524;12.052;2023-04-04T01:55:43;95847.94;;;5.26;100.00
56944;BME280;42848;42.524;12.052;2023-04-04T01:58:09;95851.44;;;5.27;100.00
56944;BME280;42848;42.524;12.052;2023-04-04T02:00:35;95859.81;;;5.25;100.00
56944;BME280;42848;42.524;12.052;2023-04-04T02:03:01;95858.34;;;5.19;100.00
56944;BME280;42848;42.524;12.052;2023-04-04T02:05:27;95853.94;;;5.23;100.00
56944;BME280;42848;42.524;12.052;2023-04-04T02:07:53;95856.16;;;5.21;100.00
56944;BME280;42848;42.524;12.052;2023-04-04T02:10:19;95848.38;;;5.20;100.00
56944;BME280;42848;42.524;12.052;2023-04-04T02:12:44;95852.16;;;5.19;100.00
56944;BME280;42848;42.524;12.052;2023-04-04T02:15:11;95840.00;;;5.21;100.00
56944;BME280;42848;42.524;12.052;2023-04-04T02:17:37;95842.50;;;5.18;100.00
56944;BME280;42848;42.524;12.052;2023-04-04T02:20:05;95836.22;;;5.22;100.00
56944;BME280;42848;42.524;12.052;2023-04-04T02:22:31;95838.41;;;5.20;100.00
56944;BME280;42848;42.524;12.052;2023-04-04T02:24:56;95838.06;;;5.13;100.00
56944;BME280;42848;42.524;12.052;2023-04-04T02:27:22;95836.44;;;5.12;100.00
56944;BME280;42848;42.524;12.052;2023-04-04T02:29:48;95829.38;;;5.16;100.00
56944;BME280;42848;42.524;12.052;2023-04-04T02:32:14;95839.13;;;5.12;100.00
56944;BME280;42848;42.524;12.052;2023-04-04T02:34:40;95839.28;;;5.07;100.00
56944;BME280;42848;42.524;12.052;2023-04-04T02:37:06;95841.47;;;5.05;100.00
56944;BME280;42848;42.524;12.052;2023-04-04T02:39:31;95839.53;;;4.97;100.00
56944;BME280;42848;42.524;12.052;2023-04-04T02:41:57;95842.31;;;4.92;100.00
56944;BME280;42848;42.524;12.052;2023-04-04T02:44:22;95829.56;;;4.97;100.00
56944;BME280;42848;42.524;12.052;2023-04-04T02:46:48;95835.34;;;4.91;100.00
56944;BME280;42848;42.524;12.052;2023-04-04T02:49:14;95837.56;;;4.89;100.00
56944;BME280;42848;42.524;12.052;2023-04-04T02:51:40;95848.50;;;4.92;100.00
56944;BME280;42848;42.524;12.052;2023-04-04T02:54:05;95842.94;;;4.89;100.00
56944;BME280;42848;42.524;12.052;2023-04-04T02:56:32;95852.09;;;4.88;100.00
56944;BME280;42848;42.524;12.052;2023-04-04T02:58:57;95835.09;;;4.78;100.00
56944;BME280;42848;42.524;12.052;2023-04-04T03:01:23;95844.59;;;4.76;100.00
56944;BME280;42848;42.524;12.052;2023-04-04T03:03:50;95848.16;;;4.71;100.00
56944;BME280;42848;42.524;12.052;2023-04-04T03:06:15;95834.63;;;4.76;100.00
56944;BME280;42848;42.524;12.052;2023-04-04T03:08:41;95846.59;;;4.70;100.00
56944;BME280;42848;42.524;12.052;2023-04-04T03:11:07;95833.56;;;4.64;100.00
56944;BME280;42848;42.524;12.052;2023-04-04T03:13:32;95833.84;;;4.76;100.00
56944;BME280;42848;42.524;12.052;2023-04-04T03:16:00;95839.25;;;4.62;100.00
56944;BME280;42848;42.524;12.052;2023-04-04T03:18:30;95836.38;;;4.59;100.00
56944;BME280;42848;42.524;12.052;2023-04-04T03:20:57;95832.28;;;4.61;100.00
56944;BME280;42848;42.524;12.052;2023-04-04T03:23:23;95824.69;;;4.63;100.00
56944;BME280;42848;42.524;12.052;2023-04-04T03:25:48;95824.31;;;4.56;100.00
56944;BME280;42848;42.524;12.052;2023-04-04T03:28:15;95841.84;;;4.53;100.00
56944;BME280;42848;42.524;12.052;2023-04-04T03:30:41;95829.91;;;4.46;100.00
56944;BME280;42848;42.524;12.052;2023-04-04T03:33:06;95837.41;;;4.49;100.00
56944;BME280;42848;42.524;12.052;2023-04-04T03:35:36;95836.28;;;4.50;100.00
56944;BME280;42848;42.524;12.052;2023-04-04T03:38:02;95827.53;;;4.44;100.00
56944;BME280;42848;42.524;12.052;2023-04-04T03:40:28;95828.94;;;4.42;100.00
56944;BME280;42848;42.524;12.052;2023-04-04T03:42:54;95839.13;;;4.31;100.00
56944;BME280;42848;42.524;12.052;2023-04-04T03:45:20;95824.38;;;4.28;100.00
56944;BME280;42848;42.524;12.052;2023-04-04T03:47:46;95832.75;;;4.27;100.00
56944;BME280;42848;42.524;12.052;2023-04-04T03:50:12;95840.53;;;4.15;100.00
56944;BME280;42848;42.524;12.052;2023-04-04T03:52:38;95846.78;;;4.10;100.00
56944;BME280;42848;42.524;12.052;2023-04-04T03:55:05;95849.38;;;4.15;100.00
56944;BME280;42848;42.524;12.052;2023-04-04T03:57:32;95849.91;;;4.04;100.00
56944;BME280;42848;42.524;12.052;2023-04-04T03:59:57;95847.28;;;3.98;100.00
56944;BME280;42848;42.524;12.052;2023-04-04T04:02:23;95852.47;;;3.95;100.00
56944;BME280;42848;42.524;12.052;2023-04-04T04:04:49;95849.88;;;3.90;100.00
56944;BME280;42848;42.524;12.052;2023-04-04T04:07:15;95855.06;;;3.86;100.00
56944;BME280;42848;42.524;12.052;2023-04-04T04:09:40;95860.72;;;3.85;100.00
56944;BME280;42848;42.524;12.052;2023-04-04T04:12:06;95860.22;;;3.83;100.00
56944;BME280;42848;42.524;12.052;2023-04-04T04:14:32;95865.19;;;3.76;100.00
56944;BME280;42848;42.524;12.052;2023-04-04T04:16:58;95870.94;;;3.83;100.00
56944;BME280;42848;42.524;12.052;2023-04-04T04:19:23;95877.53;;;3.77;100.00
56944;BME280;42848;42.524;12.052;2023-04-04T04:21:49;95878.72;;;3.70;100.00
56944;BME280;42848;42.524;12.052;2023-04-04T04:24:15;95878.63;;;3.76;100.00
56944;BME280;42848;42.524;12.052;2023-04-04T04:26:41;95878.09;;;3.74;100.00
56944;BME280;42848;42.524;12.052;2023-04-04T04:29:07;95892.19;;;3.65;100.00
56944;BME280;42848;42.524;12.052;2023-04-04T04:31:33;95886.44;;;3.58;100.00
56944;BME280;42848;42.524;12.052;2023-04-04T04:33:58;95886.94;;;3.60;100.00
56944;BME280;42848;42.524;12.052;2023-04-04T04:36:24;95884.84;;;3.57;100.00
56944;BME280;42848;42.524;12.052;2023-04-04T04:38:50;95898.34;;;3.52;100.00
56944;BME280;42848;42.524;12.052;2023-04-04T04:41:16;95914.50;;;3.66;100.00
56944;BME280;42848;42.524;12.052;2023-04-04T04:43:42;95903.34;;;3.59;100.00
56944;BME280;42848;42.524;12.052;2023-04-04T04:46:07;95912.44;;;3.44;100.00
56944;BME280;42848;42.524;12.052;2023-04-04T04:48:33;95905.47;;;3.43;100.00
56944;BME280;42848;42.524;12.052;2023-04-04T04:50:59;95900.72;;;3.40;100.00
56944;BME280;42848;42.524;12.052;2023-04-04T04:53:25;95893.59;;;3.49;100.00
56944;BME280;42848;42.524;12.052;2023-04-04T04:55:51;95902.50;;;3.45;100.00
56944;BME280;42848;42.524;12.052;2023-04-04T04:58:17;95907.97;;;3.39;100.00
56944;BME280;42848;42.524;12.052;2023-04-04T05:00:46;95907.75;;;3.36;100.00
56944;BME280;42848;42.524;12.052;2023-04-04T05:03:12;95905.16;;;3.31;100.00
56944;BME280;42848;42.524;12.052;2023-04-04T05:05:38;95899.19;;;3.34;100.00
56944;BME280;42848;42.524;12.052;2023-04-04T05:08:04;95893.09;;;3.28;100.00
56944;BME280;42848;42.524;12.052;2023-04-04T05:10:30;95900.72;;;3.40;100.00
56944;BME280;42848;42.524;12.052;2023-04-04T05:12:56;95916.88;;;3.35;100.00
56944;BME280;42848;42.524;12.052;2023-04-04T05:15:22;95916.97;;;3.30;100.00
56944;BME280;42848;42.524;12.052;2023-04-04T05:17:50;95923.84;;;3.36;100.00
56944;BME280;42848;42.524;12.052;2023-04-04T05:20:15;95916.44;;;3.28;100.00
56944;BME280;42848;42.524;12.052;2023-04-04T05:22:45;95918.16;;;3.37;100.00
56944;BME280;42848;42.524;12.052;2023-04-04T05:25:11;95904.69;;;3.42;100.00
56944;BME280;42848;42.524;12.052;2023-04-04T05:27:38;95917.69;;;3.35;100.00
56944;BME280;42848;42.524;12.052;2023-04-04T05:30:05;95913.47;;;3.48;100.00
56944;BME280;42848;42.524;12.052;2023-04-04T05:32:32;95915.63;;;3.46;100.00
56944;BME280;42848;42.524;12.052;2023-04-04T05:34:58;95916.13;;;3.48;100.00
56944;BME280;42848;42.524;12.052;2023-04-04T05:37:24;95913.84;;;3.55;100.00
56944;BME280;42848;42.524;12.052;2023-04-04T05:39:50;95925.22;;;3.66;100.00
56944;BME280;42848;42.524;12.052;2023-04-04T05:42:16;95943.09;;;3.57;100.00
56944;BME280;42848;42.524;12.052;2023-04-04T05:44:41;95913.28;;;3.58;100.00
56944;BME280;42848;42.524;12.052;2023-04-04T05:47:07;95930.19;;;3.59;100.00
56944;BME280;42848;42.524;12.052;2023-04-04T05:49:33;95916.88;;;3.67;100.00
56944;BME280;42848;42.524;12.052;2023-04-04T05:51:58;95916.34;;;3.65;100.00
56944;BME280;42848;42.524;12.052;2023-04-04T05:54:24;95928.19;;;3.64;100.00
56944;BME280;42848;42.524;12.052;2023-04-04T05:56:50;95926.53;;;3.82;100.00
56944;BME280;42848;42.524;12.052;2023-04-04T05:59:16;95935.25;;;3.74;100.00
56944;BME280;42848;42.524;12.052;2023-04-04T06:01:42;95909.75;;;3.77;100.00
56944;BME280;42848;42.524;12.052;2023-04-04T06:04:07;95931.09;;;3.82;100.00
56944;BME280;42848;42.524;12.052;2023-04-04T06:06:33;95936.41;;;3.87;100.00
56944;BME280;42848;42.524;12.052;2023-04-04T06:09:00;95935.31;;;3.88;100.00
56944;BME280;42848;42.524;12.052;2023-04-04T06:11:25;95950.13;;;3.99;100.00
56944;BME280;42848;42.524;12.052;2023-04-04T06:13:52;95940.00;;;3.96;100.00
56944;BME280;42848;42.524;12.052;2023-04-04T06:16:20;95946.16;;;3.96;100.00
56944;BME280;42848;42.524;12.052;2023-04-04T06:18:46;95933.81;;;4.09;100.00
56944;BME280;42848;42.524;12.052;2023-04-04T06:21:12;95944.47;;;4.14;100.00
56944;BME280;42848;42.524;12.052;2023-04-04T06:23:38;95935.13;;;4.12;100.00
56944;BME280;42848;42.524;12.052;2023-04-04T06:26:05;95946.78;;;4.21;100.00
56944;BME280;42848;42.524;12.052;2023-04-04T06:28:31;95946.56;;;4.17;100.00
56944;BME280;42848;42.524;12.052;2023-04-04T06:30:57;95934.72;;;4.18;100.00
56944;BME280;42848;42.524;12.052;2023-04-04T06:33:22;95946.84;;;4.29;100.00
56944;BME280;42848;42.524;12.052;2023-04-04T06:35:48;95955.00;;;4.38;100.00
56944;BME280;42848;42.524;12.052;2023-04-04T06:38:14;95960.22;;;4.35;100.00
56944;BME280;42848;42.524;12.052;2023-04-04T06:40:39;95942.28;;;4.44;100.00
56944;BME280;42848;42.524;12.052;2023-04-04T06:43:05;95967.06;;;4.41;100.00
56944;BME280;42848;42.524;12.052;2023-04-04T06:45:32;95968.66;;;4.42;100.00
56944;BME280;42848;42.524;12.052;2023-04-04T06:48:00;95951.34;;;4.48;100.00
56944;BME280;42848;42.524;12.052;2023-04-04T06:50:29;95958.31;;;4.49;100.00
56944;BME280;42848;42.524;12.052;2023-04-04T06:52:56;95955.91;;;4.61;100.00
56944;BME280;42848;42.524;12.052;2023-04-04T06:55:22;95970.25;;;4.70;100.00
56944;BME280;42848;42.524;12.052;2023-04-04T06:57:48;95981.59;;;4.67;100.00
56944;BME280;42848;42.524;12.052;2023-04-04T07:00:14;95964.16;;;4.78;100.00
56944;BME280;42848;42.524;12.052;2023-04-04T07:02:40;95972.41;;;4.82;100.00
56944;BME280;42848;42.524;12.052;2023-04-04T07:05:06;95964.66;;;4.80;100.00
56944;BME280;42848;42.524;12.052;2023-04-04T07:07:32;95971.53;;;4.87;100.00
56944;BME280;42848;42.524;12.052;2023-04-04T07:09:57;95970.19;;;4.98;100.00
56944;BME280;42848;42.524;12.052;2023-04-04T07:12:23;95974.78;;;4.83;100.00
56944;BME280;42848;42.524;12.052;2023-04-04T07:14:48;95970.50;;;4.96;100.00
56944;BME280;42848;42.524;12.052;2023-04-04T07:17:14;95985.16;;;4.90;100.00
56944;BME280;42848;42.524;12.052;2023-04-04T07:19:40;95990.72;;;4.94;100.00
56944;BME280;42848;42.524;12.052;2023-04-04T07:22:05;95990.13;;;4.97;100.00
56944;BME280;42848;42.524;12.052;2023-04-04T07:24:31;95997.09;;;4.98;100.00
56944;BME280;42848;42.524;12.052;2023-04-04T07:26:57;95993.47;;;5.16;100.00
56944;BME280;42848;42.524;12.052;2023-04-04T07:29:22;95993.41;;;5.30;100.00
56944;BME280;42848;42.524;12.052;2023-04-04T07:31:48;95998.25;;;5.19;100.00
56944;BME280;42848;42.524;12.052;2023-04-04T07:34:14;95996.41;;;5.28;100.00
56944;BME280;42848;42.524;12.052;2023-04-04T07:36:40;96017.19;;;5.14;100.00
56944;BME280;42848;42.524;12.052;2023-04-04T07:39:05;95988.97;;;5.25;100.00
56944;BME280;42848;42.524;12.052;2023-04-04T07:41:31;95988.63;;;5.40;100.00
56944;BME280;42848;42.524;12.052;2023-04-04T07:43:57;95990.09;;;5.47;100.00
56944;BME280;42848;42.524;12.052;2023-04-04T07:46:23;95988.56;;;5.54;100.00
56944;BME280;42848;42.524;12.052;2023-04-04T07:48:49;95984.81;;;5.64;100.00
56944;BME280;42848;42.524;12.052;2023-04-04T07:51:15;96000.41;;;5.67;100.00
56944;BME280;42848;42.524;12.052;2023-04-04T07:53:40;95992.84;;;5.78;100.00
56944;BME280;42848;42.524;12.052;2023-04-04T07:56:06;95986.72;;;5.63;100.00
56944;BME280;42848;42.524;12.052;2023-04-04T07:58:32;95993.28;;;5.71;100.00
56944;BME280;42848;42.524;12.052;2023-04-04T08:00:59;96001.97;;;5.68;100.00
56944;BME280;42848;42.524;12.052;2023-04-04T08:03:25;96028.34;;;5.80;100.00
56944;BME280;42848;42.524;12.052;2023-04-04T08:05:51;96021.91;;;5.89;100.00
56944;BME280;42848;42.524;12.052;2023-04-04T08:08:16;96009.44;;;5.93;100.00
56944;BME280;42848;42.524;12.052;2023-04-04T08:10:43;96015.41;;;6.04;100.00
56944;BME280;42848;42.524;12.052;2023-04-04T08:13:10;96016.25;;;6.13;100.00
56944;BME280;42848;42.524;12.052;2023-04-04T08:15:37;96006.00;;;6.02;100.00
56944;BME280;42848;42.524;12.052;2023-04-04T08:18:02;96016.72;;;5.93;100.00
56944;BME280;42848;42.524;12.052;2023-04-04T08:20:28;96003.41;;;6.19;100.00
56944;BME280;42848;42.524;12.052;2023-04-04T08:22:54;96023.75;;;6.25;100.00
56944;BME280;42848;42.524;12.052;2023-04-04T08:25:19;96013.09;;;6.20;100.00
56944;BME280;42848;42.524;12.052;2023-04-04T08:27:45;96019.84;;;6.40;100.00
56944;BME280;42848;42.524;12.052;2023-04-04T08:30:12;96022.84;;;6.38;100.00
56944;BME280;42848;42.524;12.052;2023-04-04T08:32:39;96040.47;;;6.36;100.00
56944;BME280;42848;42.524;12.052;2023-04-04T08:35:06;96031.69;;;6.30;100.00
56944;BME280;42848;42.524;12.052;2023-04-04T08:37:33;96040.34;;;6.18;100.00
56944;BME280;42848;42.524;12.052;2023-04-04T08:40:01;96038.19;;;6.29;100.00
56944;BME280;42848;42.524;12.052;2023-04-04T08:42:27;96048.09;;;6.42;100.00
56944;BME280;42848;42.524;12.052;2023-04-04T08:44:53;96047.00;;;6.43;100.00
56944;BME280;42848;42.524;12.052;2023-04-04T08:47:20;96036.06;;;6.48;100.00
56944;BME280;42848;42.524;12.052;2023-04-04T08:49:49;96049.88;;;6.47;100.00
56944;BME280;42848;42.524;12.052;2023-04-04T08:52:17;96042.25;;;6.40;100.00
56944;BME280;42848;42.524;12.052;2023-04-04T08:54:46;96033.31;;;6.31;100.00
56944;BME280;42848;42.524;12.052;2023-04-04T08:57:13;96045.16;;;6.52;100.00
56944;BME280;42848;42.524;12.052;2023-04-04T08:59:39;96041.97;;;6.50;100.00
56944;BME280;42848;42.524;12.052;2023-04-04T09:04:33;96060.13;;;6.36;100.00
56944;BME280;42848;42.524;12.052;2023-04-04T09:07:00;96064.28;;;6.42;100.00
56944;BME280;42848;42.524;12.052;2023-04-04T09:09:28;96045.66;;;6.63;100.00
56944;BME280;42848;42.524;12.052;2023-04-04T09:11:56;96049.25;;;6.50;100.00
56944;BME280;42848;42.524;12.052;2023-04-04T09:14:22;96052.69;;;6.73;100.00
56944;BME280;42848;42.524;12.052;2023-04-04T09:16:49;96067.47;;;6.84;100.00
56944;BME280;42848;42.524;12.052;2023-04-04T09:19:15;96056.31;;;6.68;99.64
56944;BME280;42848;42.524;12.052;2023-04-04T09:21:45;96063.00;;;6.71;100.00
56944;BME280;42848;42.524;12.052;2023-04-04T09:24:12;96069.63;;;7.04;100.00
56944;BME280;42848;42.524;12.052;2023-04-04T09:26:49;96065.28;;;6.86;100.00
56944;BME280;42848;42.524;12.052;2023-04-04T09:29:18;96060.13;;;6.76;100.00
56944;BME280;42848;42.524;12.052;2023-04-04T09:31:45;96064.66;;;6.89;100.00
56944;BME280;42848;42.524;12.052;2023-04-04T09:34:15;96077.06;;;6.99;100.00
56944;BME280;42848;42.524;12.052;2023-04-04T09:36:43;96069.75;;;6.99;99.38
56944;BME280;42848;42.524;12.052;2023-04-04T09:39:09;96070.56;;;7.00;100.00
56944;BME280;42848;42.524;12.052;2023-04-04T09:41:39;96073.44;;;7.12;99.60
56944;BME280;42848;42.524;12.052;2023-04-04T09:44:05;96068.31;;;6.93;98.58
56944;BME280;42848;42.524;12.052;2023-04-04T09:46:32;96079.91;;;7.02;98.57
56944;BME280;42848;42.524;12.052;2023-04-04T09:49:01;96079.59;;;6.95;99.57
56944;BME280;42848;42.524;12.052;2023-04-04T09:51:37;96082.59;;;6.94;97.81
56944;BME280;42848;42.524;12.052;2023-04-04T09:54:03;96086.31;;;7.06;97.49
56944;BME280;42848;42.524;12.052;2023-04-04T09:56:34;96093.91;;;7.04;99.15
56944;BME280;42848;42.524;12.052;2023-04-04T09:59:05;96080.28;;;7.09;99.08
56944;BME280;42848;42.524;12.052;2023-04-04T10:01:32;96092.84;;;7.14;99.14
56944;BME280;42848;42.524;12.052;2023-04-04T10:03:58;96103.00;;;7.17;98.46
56944;BME280;42848;42.524;12.052;2023-04-04T10:06:24;96089.19;;;7.19;98.90
56944;BME280;42848;42.524;12.052;2023-04-04T10:08:51;96093.69;;;7.32;100.00
56944;BME280;42848;42.524;12.052;2023-04-04T10:11:30;96092.88;;;7.40;96.75
56944;BME280;42848;42.524;12.052;2023-04-04T10:13:58;96093.81;;;7.27;97.56
56944;BME280;42848;42.524;12.052;2023-04-04T10:16:24;96083.16;;;7.22;97.01
56944;BME280;42848;42.524;12.052;2023-04-04T10:18:51;96078.91;;;7.47;98.64
56944;BME280;42848;42.524;12.052;2023-04-04T10:21:18;96077.50;;;7.66;99.30
56944;BME280;42848;42.524;12.052;2023-04-04T10:23:45;96068.31;;;7.85;97.75
56944;BME280;42848;42.524;12.052;2023-04-04T10:26:12;96090.44;;;7.95;95.51
56944;BME280;42848;42.524;12.052;2023-04-04T10:28:38;96076.59;;;7.80;95.09
56944;BME280;42848;42.524;12.052;2023-04-04T10:33:51;96083.88;;;7.70;92.72
56944;BME280;42848;42.524;12.052;2023-04-04T10:36:22;96088.97;;;7.72;92.15
56944;BME280;42848;42.524;12.052;2023-04-04T10:41:34;96088.31;;;7.66;89.93
56944;BME280;42848;42.524;12.052;2023-04-04T10:44:11;96075.94;;;7.65;87.45
56944;BME280;42848;42.524;12.052;2023-04-04T10:46:40;96070.72;;;7.86;91.03
56944;BME280;42848;42.524;12.052;2023-04-04T10:49:07;96104.41;;;7.80;90.91
56944;BME280;42848;42.524;12.052;2023-04-04T10:51:34;96088.34;;;7.84;91.48
56944;BME280;42848;42.524;12.052;2023-04-04T10:54:00;96089.44;;;7.91;90.50
56944;BME280;42848;42.524;12.052;2023-04-04T10:56:27;96083.25;;;7.99;91.63
56944;BME280;42848;42.524;12.052;2023-04-04T10:59:20;96093.13;;;7.87;89.99
56944;BME280;42848;42.524;12.052;2023-04-04T11:02:00;96100.09;;;7.70;90.61
56944;BME280;42848;42.524;12.052;2023-04-04T11:04:34;96098.19;;;7.80;92.00
56944;BME280;42848;42.524;12.052;2023-04-04T11:07:18;96079.13;;;7.85;90.47
56944;BME280;42848;42.524;12.052;2023-04-04T11:09:59;96078.16;;;8.15;89.70
56944;BME280;42848;42.524;12.052;2023-04-04T11:14:55;96091.81;;;8.27;87.20
56944;BME280;42848;42.524;12.052;2023-04-04T11:17:59;96086.75;;;8.17;86.40
56944;BME280;42848;42.524;12.052;2023-04-04T11:20:34;96076.88;;;8.21;82.04
56944;BME280;42848;42.524;12.052;2023-04-04T11:23:05;96079.09;;;8.37;84.26
56944;BME280;42848;42.524;12.052;2023-04-04T11:25:37;96085.13;;;8.34;86.68
56944;BME280;42848;42.524;12.052;2023-04-04T11:28:11;96086.88;;;8.30;82.96
56944;BME280;42848;42.524;12.052;2023-04-04T11:30:39;96080.69;;;8.38;83.71
56944;BME280;42848;42.524;12.052;2023-04-04T11:33:12;96076.53;;;8.49;82.72
56944;BME280;42848;42.524;12.052;2023-04-04T11:35:39;96069.88;;;8.38;84.05
56944;BME280;42848;42.524;12.052;2023-04-04T11:38:12;96072.78;;;7.98;85.64
56944;BME280;42848;42.524;12.052;2023-04-04T11:40:40;96069.88;;;8.20;86.05
56944;BME280;42848;42.524;12.052;2023-04-04T11:43:07;96081.31;;;8.52;86.11
56944;BME280;42848;42.524;12.052;2023-04-04T11:45:35;96067.00;;;8.43;79.50
56944;BME280;42848;42.524;12.052;2023-04-04T11:48:04;96065.81;;;8.78;82.91
56944;BME280;42848;42.524;12.052;2023-04-04T11:50:38;96084.56;;;8.75;78.95
56944;BME280;42848;42.524;12.052;2023-04-04T11:53:05;96064.31;;;8.34;75.89
56944;BME280;42848;42.524;12.052;2023-04-04T11:55:32;96068.41;;;8.49;78.55
56944;BME280;42848;42.524;12.052;2023-04-04T11:58:09;96070.78;;;8.59;79.73
56944;BME280;42848;42.524;12.052;2023-04-04T12:00:36;96068.56;;;8.61;81.21
56944;BME280;42848;42.524;12.052;2023-04-04T12:03:04;96084.28;;;8.68;80.12
56944;BME280;42848;42.524;12.052;2023-04-04T12:05:31;96065.09;;;8.43;80.53
56944;BME280;42848;42.524;12.052;2023-04-04T12:07:57;96067.78;;;8.52;81.20
56944;BME280;42848;42.524;12.052;2023-04-04T12:10:28;96062.31;;;8.78;81.39
56944;BME280;42848;42.524;12.052;2023-04-04T12:12:54;96067.25;;;8.67;80.00
56944;BME280;42848;42.524;12.052;2023-04-04T12:15:22;96076.13;;;8.76;78.38
56944;BME280;42848;42.524;12.052;2023-04-04T12:17:47;96067.56;;;8.74;80.84
56944;BME280;42848;42.524;12.052;2023-04-04T12:20:15;96066.94;;;8.69;77.97
56944;BME280;42848;42.524;12.052;2023-04-04T12:22:41;96082.16;;;8.91;79.57
56944;BME280;42848;42.524;12.052;2023-04-04T12:25:07;96052.28;;;8.78;78.13
56944;BME280;42848;42.524;12.052;2023-04-04T12:27:34;96054.25;;;8.99;80.27
56944;BME280;42848;42.524;12.052;2023-04-04T12:30:01;96049.41;;;8.75;76.47
56944;BME280;42848;42.524;12.052;2023-04-04T12:32:28;96051.06;;;8.97;74.75
56944;BME280;42848;42.524;12.052;2023-04-04T12:34:59;96068.75;;;8.39;73.07
56944;BME280;42848;42.524;12.052;2023-04-04T12:37:27;96056.28;;;8.64;74.65
56944;BME280;42848;42.524;12.052;2023-04-04T12:39:55;96056.81;;;8.87;79.46
56944;BME280;42848;42.524;12.052;2023-04-04T12:42:22;96074.16;;;8.94;78.05
56944;BME280;42848;42.524;12.052;2023-04-04T12:44:50;96064.25;;;8.69;75.47
56944;BME280;42848;42.524;12.052;2023-04-04T12:47:19;96055.38;;;8.60;76.35
56944;BME280;42848;42.524;12.052;2023-04-04T12:49:51;96049.88;;;8.77;79.65
56944;BME280;42848;42.524;12.052;2023-04-04T12:52:29;96047.91;;;8.86;82.64
56944;BME280;42848;42.524;12.052;2023-04-04T12:55:04;96049.00;;;8.94;81.20
56944;BME280;42848;42.524;12.052;2023-04-04T12:57:33;96049.47;;;8.96;81.30
56944;BME280;42848;42.524;12.052;2023-04-04T13:00:01;96040.41;;;8.92;81.14
56944;BME280;42848;42.524;12.052;2023-04-04T13:02:26;96051.84;;;9.06;83.00
56944;BME280;42848;42.524;12.052;2023-04-04T13:04:54;96048.94;;;8.73;80.22
56944;BME280;42848;42.524;12.052;2023-04-04T13:07:25;96031.53;;;8.82;80.86